Weather reports worldwide

Advertisment
Trento, Italy (16023): temperature & dewpoint: 15.01.2018 04:00:00 - 21.01.2018 04:00:00 (CET)Trento, Italy (16023): wind speed: 15.01.2018 04:00:00 - 21.01.2018 04:00:00 (CET)Trento, Italy (16023): wind direction: 15.01.2018 04:00:00 - 21.01.2018 04:00:00 (CET)Trento, Italy (16023): reduced air pressure: 15.01.2018 04:00:00 - 21.01.2018 04:00:00 (CET)Trento, Italy (16023): precipitation: 15.01.2018 04:00:00 - 21.01.2018 04:00:00 (CET)
Date & Time tt [°C] td [°C] ff [km/h] ff [kn] dd ppp [hPa] rr [mm]
21.01.2018 04:00:00 - - - - - - -
21.01.2018 03:00:00 2,4 -0,7 2 1 W 1005,9 -
21.01.2018 02:00:00 2,7 -1,7 8 4 ENE 1004,8 -
21.01.2018 01:00:00 2,7 -2,7 5 3 NNW 1005,7 -
21.01.2018 00:00:00 2,5 -3,9 4 2 E 1005,4 -
20.01.2018 23:00:00 2,7 -3,5 5 3 S 1006,8 -
20.01.2018 22:00:00 2,5 -3,7 5 3 W 1006,2 -
20.01.2018 21:00:00 2,1 -4,5 5 3 E 1007,3 -
20.01.2018 20:00:00 2,6 -4,7 2 1 ENE 1007,8 -
20.01.2018 19:00:00 3,0 -5,3 4 2 E 1008,6 0,0
20.01.2018 18:00:00 4,3 -5,9 4 2 E 1009,2 -
20.01.2018 17:00:00 6,0 -6,1 2 1 NW 1009,4 -
20.01.2018 16:00:00 6,9 -6,2 5 3 NW 1010,3 -
20.01.2018 15:00:00 6,7 -6,4 2 1 S 1011,1 -
20.01.2018 14:00:00 8,2 -5,4 2 1 W 1011,7 -
20.01.2018 13:00:00 5,6 -6,8 8 4 NW 1013,2 0,0
20.01.2018 12:00:00 4,8 -6,9 5 3 NNW 1014,7 -
20.01.2018 11:00:00 3,3 -4,7 5 3 SSE 1015,8 -
20.01.2018 10:00:00 -0,3 -5,6 11 6 NNW 1016,7 -
20.01.2018 09:00:00 -1,7 -7,3 8 4 ENE 1016,9 -
20.01.2018 08:00:00 -2,0 -8,2 4 2 E 1016,4 -
20.01.2018 07:00:00 -1,4 -8,0 4 2 SSE 1016,1 -
20.01.2018 06:00:00 -0,5 -7,4 2 1 ENE 1015,5 -
20.01.2018 05:00:00 0,1 -6,2 5 3 NE 1015,0 -
20.01.2018 04:00:00 0,0 -5,3 5 3 ENE 1015,4 -
20.01.2018 03:00:00 -1,0 -6,6 5 3 NNW 1015,4 -
20.01.2018 02:00:00 -1,2 -6,4 8 4 NE 1015,3 -
20.01.2018 01:00:00 -0,9 -6,7 0 0 N 1015,2 -
20.01.2018 00:00:00 -0,9 -5,9 8 4 NE 1014,6 -
19.01.2018 23:00:00 -0,9 -6,1 4 2 W 1014,6 -
19.01.2018 22:00:00 0,0 -5,5 5 3 E 1013,7 -
19.01.2018 21:00:00 0,2 -6,3 4 2 S 1013,5 -
19.01.2018 20:00:00 0,9 -6,1 4 2 NNW 1012,5 -
19.01.2018 19:00:00 2,2 -5,8 4 2 E 1012,0 0,0
19.01.2018 18:00:00 3,3 -5,5 8 4 SE 1011,3 -
19.01.2018 17:00:00 5,2 -5,3 4 2 N 1010,0 -
19.01.2018 16:00:00 7,7 -4,2 8 4 N 1009,7 -
19.01.2018 15:00:00 8,0 -3,9 24 13 NNE 1009,5 -
19.01.2018 14:00:00 7,7 -3,9 16 9 ENE 1009,1 -
19.01.2018 13:00:00 6,4 -4,5 16 9 N 1009,8 0,0
19.01.2018 12:00:00 5,0 -4,2 13 7 N 1010,5 -
19.01.2018 11:00:00 3,2 -3,0 4 2 SSE 1010,7 -
19.01.2018 10:00:00 0,2 -4,1 4 2 E 1010,7 -
19.01.2018 09:00:00 -0,7 -4,1 4 2 NE 1011,0 -
19.01.2018 08:00:00 -2,0 -5,7 5 3 NE 1010,5 -
19.01.2018 07:00:00 -2,1 -5,8 2 1 NE 1010,7 0,0
19.01.2018 06:00:00 -1,9 -5,6 4 2 ENE 1010,8 -
19.01.2018 05:00:00 -1,9 -5,6 4 2 NNE 1010,7 -
19.01.2018 04:00:00 -1,7 -5,6 5 3 N 1011,0 -
19.01.2018 03:00:00 -1,7 -6,0 2 1 NE 1011,5 -
19.01.2018 02:00:00 -1,3 -5,6 4 2 NE 1011,6 -
19.01.2018 01:00:00 -0,9 -5,0 8 4 NNW 1012,0 0,0
19.01.2018 00:00:00 -1,3 -6,5 2 1 E 1012,8 -
18.01.2018 23:00:00 -0,5 -6,2 4 2 ENE 1012,8 -
18.01.2018 22:00:00 -0,2 -6,5 4 2 ENE 1013,1 -
18.01.2018 21:00:00 0,7 -6,1 4 2 E 1012,9 -
18.01.2018 20:00:00 1,0 -6,2 4 2 N 1013,1 -
18.01.2018 19:00:00 1,7 -6,0 5 3 NNW 1012,9 0,0
18.01.2018 18:00:00 2,6 -6,9 4 2 SSE 1012,7 -
18.01.2018 17:00:00 4,8 -6,9 2 1 ENE 1012,3 -
18.01.2018 16:00:00 7,5 -5,7 5 3 WNW 1012,1 -
18.01.2018 15:00:00 7,4 -6,1 8 4 NNW 1012,8 -
18.01.2018 14:00:00 6,9 -5,9 5 3 N 1013,2 -
18.01.2018 13:00:00 5,6 -6,1 9 5 NNW 1014,8 0,0
18.01.2018 12:00:00 5,0 -5,2 11 6 NNW 1015,9 -
18.01.2018 11:00:00 2,5 -1,2 2 1 NNW 1016,8 -
18.01.2018 10:00:00 -1,6 -5,7 4 2 WSW 1018,0 -
18.01.2018 09:00:00 -2,1 -5,8 4 2 N 1018,1 -
18.01.2018 08:00:00 -2,6 -6,5 4 2 E 1017,7 -
18.01.2018 07:00:00 -2,1 -6,0 5 3 NE 1017,3 0,0
18.01.2018 06:00:00 -2,0 -6,8 2 1 ESE 1017,2 -
18.01.2018 05:00:00 -1,9 -6,9 5 3 ENE 1017,2 -
18.01.2018 04:00:00 -1,4 -7,0 2 1 E 1016,7 -
18.01.2018 03:00:00 -1,4 -7,4 8 4 WNW 1016,7 -
18.01.2018 02:00:00 -0,4 -5,7 9 5 N 1016,4 -
18.01.2018 01:00:00 -0,7 -7,0 4 2 ENE 1016,0 0,0
18.01.2018 00:00:00 0,0 -6,5 4 2 WNW 1015,5 -
17.01.2018 23:00:00 0,6 -5,9 4 2 E 1014,5 -
17.01.2018 22:00:00 1,0 -6,4 5 3 E 1013,6 -
17.01.2018 21:00:00 1,4 -6,5 4 2 NE 1012,9 -
17.01.2018 20:00:00 2,4 -6,3 5 3 NNW 1011,3 -
17.01.2018 19:00:00 3,3 -6,3 8 4 NNW 1010,2 0,0
17.01.2018 18:00:00 4,0 -6,1 8 4 NW 1009,2 -
17.01.2018 17:00:00 5,3 -7,0 2 1 NNW 1007,9 -
17.01.2018 16:00:00 7,4 -6,5 9 5 NNW 1007,1 -
17.01.2018 15:00:00 8,2 -3,8 4 2 N 1004,3 -
17.01.2018 14:00:00 8,9 -2,2 5 3 W 1003,5 -
17.01.2018 13:00:00 7,1 -0,2 2 1 WNW 1003,2 0,0
17.01.2018 12:00:00 5,6 1,1 9 5 NW 1002,9 -
17.01.2018 11:00:00 3,3 1,0 4 2 NW 1002,8 -
17.01.2018 10:00:00 2,4 0,4 8 4 E 1002,2 -
17.01.2018 09:00:00 2,0 0,0 4 2 WNW 1001,5 -
17.01.2018 08:00:00 0,4 -1,4 2 1 ENE 1001,4 -
17.01.2018 07:00:00 0,5 -1,3 5 3 E 1000,1 0,0
17.01.2018 06:00:00 0,8 -0,7 11 6 S 1001,0 -
17.01.2018 05:00:00 0,0 -1,8 9 5 NNW 1001,0 -
17.01.2018 04:00:00 -1,4 -3,8 2 1 NNE 1001,3 -
17.01.2018 03:00:00 -1,0 -3,4 2 1 W 1001,4 -
17.01.2018 02:00:00 -0,4 -3,1 2 1 SW 1002,4 -
17.01.2018 01:00:00 0,1 -3,0 4 2 NE 1003,6 0,0
17.01.2018 00:00:00 0,5 -3,1 5 3 N 1004,7 -
16.01.2018 23:00:00 1,3 -2,7 4 2 NNE 1005,2 -
16.01.2018 22:00:00 2,4 -1,3 4 2 N 1005,8 -
16.01.2018 21:00:00 2,8 -1,1 0 0 N 1006,0 -
16.01.2018 20:00:00 2,8 -1,2 2 1 SE 1006,0 -
16.01.2018 19:00:00 2,7 -1,9 4 2 ESE 1006,2 0,0
16.01.2018 18:00:00 2,9 -2,1 4 2 W 1006,9 -
16.01.2018 17:00:00 3,6 -2,4 0 0 N 1007,2 -
16.01.2018 16:00:00 3,9 -2,4 5 3 NNW 1007,4 -
16.01.2018 15:00:00 4,1 -1,8 4 2 NW 1007,6 -
16.01.2018 14:00:00 3,9 -0,8 5 3 NNW 1008,9 -
16.01.2018 13:00:00 3,6 0,1 - - - 1010,1 0,0
16.01.2018 12:00:00 3,2 0,2 2 1 W 1010,7 -
16.01.2018 11:00:00 3,0 0,4 5 3 N 1011,9 -
16.01.2018 10:00:00 2,7 0,7 0 0 N 1012,2 -
16.01.2018 09:00:00 2,4 0,6 4 2 NW 1012,5 -
16.01.2018 08:00:00 2,4 0,6 0 0 N 1012,9 -
16.01.2018 07:00:00 2,3 0,3 4 2 NNW 1013,0 0,0
16.01.2018 06:00:00 2,3 0,3 5 3 NNW 1013,5 -
16.01.2018 05:00:00 2,5 0,7 5 3 NW 1014,8 -
16.01.2018 04:00:00 2,5 0,8 11 6 NNE 1015,2 -
16.01.2018 03:00:00 2,8 1,3 9 5 N 1015,9 -
16.01.2018 02:00:00 2,8 1,0 8 4 E 1016,5 -
16.01.2018 01:00:00 2,8 0,3 2 1 W 1017,7 0,0
16.01.2018 00:00:00 2,9 0,1 - - - 1018,2 -
15.01.2018 23:00:00 2,7 -1,2 0 0 N 1018,9 -
15.01.2018 22:00:00 2,8 -1,4 2 1 NE 1019,8 -
15.01.2018 21:00:00 3,0 -1,4 5 3 NW 1019,8 -
15.01.2018 20:00:00 2,8 -2,8 2 1 ENE 1020,2 -
15.01.2018 19:00:00 3,7 -3,0 0 0 N 1019,9 0,0
15.01.2018 18:00:00 4,3 -3,1 2 1 NNE 1021,1 -
15.01.2018 17:00:00 4,5 -3,1 5 3 ESE 1021,3 -
15.01.2018 16:00:00 4,8 -3,6 2 1 S 1021,7 -
15.01.2018 15:00:00 4,9 -3,5 2 1 SSW 1022,0 -
15.01.2018 14:00:00 4,5 -3,9 2 1 SSW 1023,0 -
15.01.2018 13:00:00 4,5 -3,4 5 3 SW 1024,1 0,0
15.01.2018 12:00:00 3,7 -3,7 8 4 NNW 1025,2 -
15.01.2018 11:00:00 3,0 -3,9 11 6 NNW 1025,9 -
15.01.2018 10:00:00 2,6 -3,2 8 4 N 1025,9 -
15.01.2018 09:00:00 2,4 -2,0 9 5 WNW 1025,6 -
15.01.2018 08:00:00 2,1 -1,6 2 1 E 1025,2 -
15.01.2018 07:00:00 2,1 -1,4 2 1 SE 1024,9 -
15.01.2018 06:00:00 1,9 -1,6 2 1 ESE 1024,7 -
15.01.2018 05:00:00 1,9 -1,6 2 1 E 1024,9 -
15.01.2018 04:00:00 2,0 -1,1 0 0 N 1025,0 -

tt = temperature
td = dewpoint
ff = wind speed
dd = wind direction
ppp = reduced air pressure
rr = precipitation

Next stations